sensor_id;sensor_type;location;lat;lon;timestamp;pressure;altitude;pressure_sealevel;temperature;humidity
26657;BME280;14279;50.010;8.260;2022-12-18T00:00:28;101860.19;;;-5.90;78.93
26657;BME280;14279;50.010;8.260;2022-12-18T00:02:53;101856.19;;;-5.84;78.24
26657;BME280;14279;50.010;8.260;2022-12-18T00:05:18;101853.56;;;-5.86;78.21
26657;BME280;14279;50.010;8.260;2022-12-18T00:07:44;101852.59;;;-5.90;78.42
26657;BME280;14279;50.010;8.260;2022-12-18T00:10:09;101854.38;;;-5.87;78.20
26657;BME280;14279;50.010;8.260;2022-12-18T00:12:34;101846.28;;;-5.98;78.39
26657;BME280;14279;50.010;8.260;2022-12-18T00:14:59;101852.63;;;-5.88;77.96
26657;BME280;14279;50.010;8.260;2022-12-18T00:17:25;101858.66;;;-5.86;78.11
26657;BME280;14279;50.010;8.260;2022-12-18T00:19:50;101849.78;;;-5.76;78.09
26657;BME280;14279;50.010;8.260;2022-12-18T00:22:18;101848.31;;;-5.71;77.58
26657;BME280;14279;50.010;8.260;2022-12-18T00:24:43;101853.00;;;-5.80;77.27
26657;BME280;14279;50.010;8.260;2022-12-18T00:27:08;101847.56;;;-5.88;78.14
26657;BME280;14279;50.010;8.260;2022-12-18T00:29:34;101847.44;;;-5.91;78.27
26657;BME280;14279;50.010;8.260;2022-12-18T00:31:59;101845.13;;;-5.86;78.25
26657;BME280;14279;50.010;8.260;2022-12-18T00:34:24;101840.84;;;-5.88;78.86
26657;BME280;14279;50.010;8.260;2022-12-18T00:36:49;101847.06;;;-5.81;78.54
26657;BME280;14279;50.010;8.260;2022-12-18T00:39:15;101852.44;;;-5.93;78.48
26657;BME280;14279;50.010;8.260;2022-12-18T00:41:40;101847.50;;;-5.90;78.20
26657;BME280;14279;50.010;8.260;2022-12-18T00:44:24;101846.91;;;-5.84;77.61
26657;BME280;14279;50.010;8.260;2022-12-18T00:46:49;101838.72;;;-5.78;77.62
26657;BME280;14279;50.010;8.260;2022-12-18T00:49:16;101852.41;;;-5.75;77.48
26657;BME280;14279;50.010;8.260;2022-12-18T00:51:42;101853.50;;;-5.69;77.40
26657;BME280;14279;50.010;8.260;2022-12-18T00:54:08;101857.06;;;-5.64;76.87
26657;BME280;14279;50.010;8.260;2022-12-18T00:56:35;101853.69;;;-5.65;77.03
26657;BME280;14279;50.010;8.260;2022-12-18T01:02:10;101853.97;;;-5.59;76.28
26657;BME280;14279;50.010;8.260;2022-12-18T01:04:41;101851.19;;;-5.63;76.63
26657;BME280;14279;50.010;8.260;2022-12-18T01:07:06;101850.25;;;-5.65;77.05
26657;BME280;14279;50.010;8.260;2022-12-18T01:09:32;101854.16;;;-5.54;76.37
26657;BME280;14279;50.010;8.260;2022-12-18T01:11:57;101855.41;;;-5.64;76.35
26657;BME280;14279;50.010;8.260;2022-12-18T01:14:22;101863.16;;;-5.61;76.40
26657;BME280;14279;50.010;8.260;2022-12-18T01:16:47;101872.25;;;-5.66;76.21
26657;BME280;14279;50.010;8.260;2022-12-18T01:19:12;101859.03;;;-5.78;76.74
26657;BME280;14279;50.010;8.260;2022-12-18T01:21:38;101867.28;;;-5.82;77.23
26657;BME280;14279;50.010;8.260;2022-12-18T01:24:04;101865.41;;;-5.86;77.05
26657;BME280;14279;50.010;8.260;2022-12-18T01:26:29;101868.66;;;-5.89;77.14
26657;BME280;14279;50.010;8.260;2022-12-18T01:28:56;101864.81;;;-5.81;76.85
26657;BME280;14279;50.010;8.260;2022-12-18T01:31:24;101873.63;;;-5.72;76.66
26657;BME280;14279;50.010;8.260;2022-12-18T01:33:51;101883.00;;;-5.71;76.32
26657;BME280;14279;50.010;8.260;2022-12-18T01:36:30;101892.53;;;-5.66;76.46
26657;BME280;14279;50.010;8.260;2022-12-18T01:38:56;101890.00;;;-5.66;76.38
26657;BME280;14279;50.010;8.260;2022-12-18T01:41:26;101883.34;;;-5.82;76.76
26657;BME280;14279;50.010;8.260;2022-12-18T01:43:58;101887.50;;;-5.84;76.75
26657;BME280;14279;50.010;8.260;2022-12-18T01:46:25;101884.31;;;-5.80;76.57
26657;BME280;14279;50.010;8.260;2022-12-18T01:48:53;101895.19;;;-5.82;76.48
26657;BME280;14279;50.010;8.260;2022-12-18T01:51:20;101878.28;;;-5.82;76.68
26657;BME280;14279;50.010;8.260;2022-12-18T01:53:46;101873.16;;;-5.83;76.64
26657;BME280;14279;50.010;8.260;2022-12-18T01:56:14;101868.88;;;-5.84;76.31
26657;BME280;14279;50.010;8.260;2022-12-18T01:59:00;101874.81;;;-5.84;76.40
26657;BME280;14279;50.010;8.260;2022-12-18T02:01:29;101864.66;;;-5.84;76.42
26657;BME280;14279;50.010;8.260;2022-12-18T02:03:55;101868.28;;;-5.79;75.66
26657;BME280;14279;50.010;8.260;2022-12-18T02:06:34;101865.59;;;-5.82;75.98
26657;BME280;14279;50.010;8.260;2022-12-18T02:09:13;101870.88;;;-5.77;76.22
26657;BME280;14279;50.010;8.260;2022-12-18T02:14:38;101873.88;;;-5.86;76.16
26657;BME280;14279;50.010;8.260;2022-12-18T02:17:12;101870.53;;;-5.85;75.76
26657;BME280;14279;50.010;8.260;2022-12-18T02:19:52;101864.81;;;-5.81;75.43
26657;BME280;14279;50.010;8.260;2022-12-18T02:22:29;101860.63;;;-5.80;75.92
26657;BME280;14279;50.010;8.260;2022-12-18T02:25:39;101863.25;;;-5.77;75.53
26657;BME280;14279;50.010;8.260;2022-12-18T02:28:08;101855.25;;;-5.86;75.51
26657;BME280;14279;50.010;8.260;2022-12-18T02:30:35;101850.91;;;-5.89;75.51
26657;BME280;14279;50.010;8.260;2022-12-18T02:33:04;101850.91;;;-5.89;75.66
26657;BME280;14279;50.010;8.260;2022-12-18T02:35:32;101843.44;;;-5.86;75.44
26657;BME280;14279;50.010;8.260;2022-12-18T02:37:59;101841.84;;;-5.84;75.11
26657;BME280;14279;50.010;8.260;2022-12-18T02:40:26;101846.25;;;-5.80;75.21
26657;BME280;14279;50.010;8.260;2022-12-18T02:42:53;101839.03;;;-5.90;75.02
26657;BME280;14279;50.010;8.260;2022-12-18T02:45:18;101831.69;;;-6.04;75.30
26657;BME280;14279;50.010;8.260;2022-12-18T02:47:46;101846.84;;;-6.05;75.36
26657;BME280;14279;50.010;8.260;2022-12-18T02:50:32;101855.03;;;-6.11;75.70
26657;BME280;14279;50.010;8.260;2022-12-18T02:56:09;101854.81;;;-6.34;76.25
26657;BME280;14279;50.010;8.260;2022-12-18T02:58:47;101859.09;;;-6.32;75.95
26657;BME280;14279;50.010;8.260;2022-12-18T03:01:29;101856.19;;;-6.40;76.33
26657;BME280;14279;50.010;8.260;2022-12-18T03:04:08;101865.53;;;-6.39;76.48
26657;BME280;14279;50.010;8.260;2022-12-18T03:06:48;101855.75;;;-6.31;76.33
26657;BME280;14279;50.010;8.260;2022-12-18T03:09:18;101861.13;;;-6.25;76.08
26657;BME280;14279;50.010;8.260;2022-12-18T03:11:48;101867.13;;;-6.23;75.66
26657;BME280;14279;50.010;8.260;2022-12-18T03:14:34;101861.19;;;-6.24;75.93
26657;BME280;14279;50.010;8.260;2022-12-18T03:17:03;101863.31;;;-6.15;76.04
26657;BME280;14279;50.010;8.260;2022-12-18T03:19:33;101862.72;;;-6.09;75.75
26657;BME280;14279;50.010;8.260;2022-12-18T03:22:02;101854.06;;;-6.13;75.61
26657;BME280;14279;50.010;8.260;2022-12-18T03:24:30;101849.88;;;-6.12;75.62
26657;BME280;14279;50.010;8.260;2022-12-18T03:27:01;101848.50;;;-6.06;75.75
26657;BME280;14279;50.010;8.260;2022-12-18T03:29:42;101844.31;;;-6.05;75.56
26657;BME280;14279;50.010;8.260;2022-12-18T03:32:18;101848.75;;;-5.99;75.43
26657;BME280;14279;50.010;8.260;2022-12-18T03:34:46;101850.31;;;-6.03;75.08
26657;BME280;14279;50.010;8.260;2022-12-18T03:37:15;101841.78;;;-6.05;75.47
26657;BME280;14279;50.010;8.260;2022-12-18T03:39:40;101841.94;;;-6.02;75.07
26657;BME280;14279;50.010;8.260;2022-12-18T03:47:09;101856.41;;;-6.17;75.50
26657;BME280;14279;50.010;8.260;2022-12-18T03:49:50;101837.22;;;-6.30;75.45
26657;BME280;14279;50.010;8.260;2022-12-18T03:52:31;101831.66;;;-6.23;75.52
26657;BME280;14279;50.010;8.260;2022-12-18T03:55:01;101841.16;;;-6.19;75.37
26657;BME280;14279;50.010;8.260;2022-12-18T03:57:29;101839.81;;;-6.11;75.41
26657;BME280;14279;50.010;8.260;2022-12-18T03:59:58;101842.72;;;-6.03;75.38
26657;BME280;14279;50.010;8.260;2022-12-18T04:02:25;101841.84;;;-6.04;75.25
26657;BME280;14279;50.010;8.260;2022-12-18T04:04:56;101833.28;;;-6.06;75.50
26657;BME280;14279;50.010;8.260;2022-12-18T04:07:23;101831.69;;;-6.04;75.02
26657;BME280;14279;50.010;8.260;2022-12-18T04:09:50;101837.72;;;-6.01;74.76
26657;BME280;14279;50.010;8.260;2022-12-18T04:12:18;101835.28;;;-5.98;74.80
26657;BME280;14279;50.010;8.260;2022-12-18T04:14:44;101830.13;;;-6.20;74.81
26657;BME280;14279;50.010;8.260;2022-12-18T04:17:09;101830.22;;;-6.36;75.05
26657;BME280;14279;50.010;8.260;2022-12-18T04:19:35;101834.28;;;-6.40;75.48
26657;BME280;14279;50.010;8.260;2022-12-18T04:22:00;101832.94;;;-6.31;75.42
26657;BME280;14279;50.010;8.260;2022-12-18T04:24:25;101827.59;;;-6.20;75.44
26657;BME280;14279;50.010;8.260;2022-12-18T04:26:51;101836.22;;;-6.16;75.10
26657;BME280;14279;50.010;8.260;2022-12-18T04:29:16;101838.09;;;-6.30;75.21
26657;BME280;14279;50.010;8.260;2022-12-18T04:31:41;101835.13;;;-6.39;75.04
26657;BME280;14279;50.010;8.260;2022-12-18T04:34:06;101827.75;;;-6.53;75.49
26657;BME280;14279;50.010;8.260;2022-12-18T04:36:32;101819.78;;;-6.42;75.74
26657;BME280;14279;50.010;8.260;2022-12-18T04:38:57;101812.66;;;-6.31;74.94
26657;BME280;14279;50.010;8.260;2022-12-18T04:41:22;101818.97;;;-6.23;74.51
26657;BME280;14279;50.010;8.260;2022-12-18T04:43:47;101821.56;;;-6.22;74.54
26657;BME280;14279;50.010;8.260;2022-12-18T04:46:13;101827.88;;;-6.13;74.40
26657;BME280;14279;50.010;8.260;2022-12-18T04:48:38;101828.88;;;-6.10;73.95
26657;BME280;14279;50.010;8.260;2022-12-18T04:51:04;101831.34;;;-6.11;74.00
26657;BME280;14279;50.010;8.260;2022-12-18T04:53:30;101837.38;;;-6.09;74.34
26657;BME280;14279;50.010;8.260;2022-12-18T04:56:22;101844.97;;;-6.09;74.32
26657;BME280;14279;50.010;8.260;2022-12-18T04:58:47;101845.56;;;-6.15;74.18
26657;BME280;14279;50.010;8.260;2022-12-18T05:01:14;101830.47;;;-6.12;74.38
26657;BME280;14279;50.010;8.260;2022-12-18T05:03:40;101839.47;;;-5.99;74.14
26657;BME280;14279;50.010;8.260;2022-12-18T05:06:06;101832.69;;;-6.00;74.10
26657;BME280;14279;50.010;8.260;2022-12-18T05:08:32;101836.91;;;-6.00;73.77
26657;BME280;14279;50.010;8.260;2022-12-18T05:11:02;101843.88;;;-5.95;73.64
26657;BME280;14279;50.010;8.260;2022-12-18T05:13:28;101845.63;;;-5.94;73.54
26657;BME280;14279;50.010;8.260;2022-12-18T05:15:54;101848.34;;;-5.89;73.49
26657;BME280;14279;50.010;8.260;2022-12-18T05:18:20;101842.38;;;-5.91;73.27
26657;BME280;14279;50.010;8.260;2022-12-18T05:20:45;101846.22;;;-5.99;73.21
26657;BME280;14279;50.010;8.260;2022-12-18T05:23:10;101850.25;;;-6.05;73.33
26657;BME280;14279;50.010;8.260;2022-12-18T05:25:35;101852.78;;;-6.05;73.35
26657;BME280;14279;50.010;8.260;2022-12-18T05:28:01;101852.22;;;-5.97;73.56
26657;BME280;14279;50.010;8.260;2022-12-18T05:30:26;101850.44;;;-6.00;73.97
26657;BME280;14279;50.010;8.260;2022-12-18T05:32:52;101832.63;;;-6.01;74.08
26657;BME280;14279;50.010;8.260;2022-12-18T05:35:18;101839.56;;;-5.97;73.72
26657;BME280;14279;50.010;8.260;2022-12-18T05:37:43;101845.16;;;-6.05;74.09
26657;BME280;14279;50.010;8.260;2022-12-18T05:40:09;101831.63;;;-6.05;74.31
26657;BME280;14279;50.010;8.260;2022-12-18T05:42:35;101834.38;;;-6.00;74.08
26657;BME280;14279;50.010;8.260;2022-12-18T05:45:00;101831.94;;;-5.97;74.32
26657;BME280;14279;50.010;8.260;2022-12-18T05:47:26;101833.28;;;-5.86;74.09
26657;BME280;14279;50.010;8.260;2022-12-18T05:49:52;101826.38;;;-5.90;73.47
26657;BME280;14279;50.010;8.260;2022-12-18T05:52:17;101818.63;;;-5.93;73.69
26657;BME280;14279;50.010;8.260;2022-12-18T05:54:42;101829.25;;;-6.02;74.11
26657;BME280;14279;50.010;8.260;2022-12-18T05:57:07;101827.81;;;-5.95;73.95
26657;BME280;14279;50.010;8.260;2022-12-18T05:59:33;101833.28;;;-5.86;73.76
26657;BME280;14279;50.010;8.260;2022-12-18T06:01:58;101826.22;;;-5.93;73.43
26657;BME280;14279;50.010;8.260;2022-12-18T06:04:23;101825.53;;;-5.89;73.46
26657;BME280;14279;50.010;8.260;2022-12-18T06:06:49;101839.91;;;-5.90;73.52
26657;BME280;14279;50.010;8.260;2022-12-18T06:09:14;101844.38;;;-5.84;73.55
26657;BME280;14279;50.010;8.260;2022-12-18T06:11:39;101837.56;;;-5.85;73.28
26657;BME280;14279;50.010;8.260;2022-12-18T06:14:05;101850.25;;;-5.85;73.43
26657;BME280;14279;50.010;8.260;2022-12-18T06:16:31;101847.50;;;-5.90;73.43
26657;BME280;14279;50.010;8.260;2022-12-18T06:18:58;101853.97;;;-5.96;73.36
26657;BME280;14279;50.010;8.260;2022-12-18T06:21:24;101851.44;;;-5.96;73.51
26657;BME280;14279;50.010;8.260;2022-12-18T06:23:49;101856.84;;;-5.89;73.75
26657;BME280;14279;50.010;8.260;2022-12-18T06:26:15;101856.25;;;-5.83;73.81
26657;BME280;14279;50.010;8.260;2022-12-18T06:28:41;101862.91;;;-5.85;73.79
26657;BME280;14279;50.010;8.260;2022-12-18T06:31:06;101864.16;;;-5.77;73.38
26657;BME280;14279;50.010;8.260;2022-12-18T06:33:32;101868.94;;;-5.83;73.12
26657;BME280;14279;50.010;8.260;2022-12-18T06:36:04;101870.81;;;-5.79;73.36
26657;BME280;14279;50.010;8.260;2022-12-18T06:38:32;101871.25;;;-5.69;73.60
26657;BME280;14279;50.010;8.260;2022-12-18T06:40:57;101876.78;;;-5.19;75.09
26657;BME280;14279;50.010;8.260;2022-12-18T06:43:23;101883.41;;;-4.62;73.25
26657;BME280;14279;50.010;8.260;2022-12-18T06:45:48;101877.50;;;-4.61;73.97
26657;BME280;14279;50.010;8.260;2022-12-18T06:48:18;101875.91;;;-4.59;71.85
26657;BME280;14279;50.010;8.260;2022-12-18T06:50:44;101886.47;;;-4.27;71.05
26657;BME280;14279;50.010;8.260;2022-12-18T06:53:09;101887.94;;;-4.32;70.91
26657;BME280;14279;50.010;8.260;2022-12-18T06:55:34;101887.06;;;-4.34;71.15
26657;BME280;14279;50.010;8.260;2022-12-18T06:57:59;101884.50;;;-4.34;71.08
26657;BME280;14279;50.010;8.260;2022-12-18T07:00:25;101881.06;;;-4.14;69.96
26657;BME280;14279;50.010;8.260;2022-12-18T07:02:50;101882.97;;;-4.08;69.44
26657;BME280;14279;50.010;8.260;2022-12-18T07:05:15;101888.53;;;-3.96;68.95
26657;BME280;14279;50.010;8.260;2022-12-18T07:07:40;101886.06;;;-3.94;69.15
26657;BME280;14279;50.010;8.260;2022-12-18T07:10:06;101885.41;;;-3.88;67.80
26657;BME280;14279;50.010;8.260;2022-12-18T07:12:31;101885.91;;;-4.20;67.76
26657;BME280;14279;50.010;8.260;2022-12-18T07:14:57;101891.13;;;-4.17;67.97
26657;BME280;14279;50.010;8.260;2022-12-18T07:17:22;101890.03;;;-4.24;68.21
26657;BME280;14279;50.010;8.260;2022-12-18T07:19:47;101894.72;;;-4.12;68.19
26657;BME280;14279;50.010;8.260;2022-12-18T07:22:12;101894.34;;;-4.21;67.51
26657;BME280;14279;50.010;8.260;2022-12-18T07:24:38;101896.97;;;-4.41;68.32
26657;BME280;14279;50.010;8.260;2022-12-18T07:27:03;101892.19;;;-4.33;68.40
26657;BME280;14279;50.010;8.260;2022-12-18T07:29:29;101886.16;;;-4.14;68.35
26657;BME280;14279;50.010;8.260;2022-12-18T07:31:54;101879.53;;;-4.09;68.04
26657;BME280;14279;50.010;8.260;2022-12-18T07:34:19;101880.88;;;-4.18;67.69
26657;BME280;14279;50.010;8.260;2022-12-18T07:36:45;101887.81;;;-4.14;68.42
26657;BME280;14279;50.010;8.260;2022-12-18T07:39:11;101879.78;;;-4.25;69.13
26657;BME280;14279;50.010;8.260;2022-12-18T07:41:36;101884.56;;;-4.33;70.13
26657;BME280;14279;50.010;8.260;2022-12-18T07:44:01;101881.00;;;-4.15;70.68
26657;BME280;14279;50.010;8.260;2022-12-18T07:46:26;101883.50;;;-4.17;70.66
26657;BME280;14279;50.010;8.260;2022-12-18T07:48:52;101892.56;;;-4.24;71.01
26657;BME280;14279;50.010;8.260;2022-12-18T07:51:17;101905.88;;;-4.08;71.14
26657;BME280;14279;50.010;8.260;2022-12-18T07:53:43;101913.53;;;-4.07;70.64
26657;BME280;14279;50.010;8.260;2022-12-18T07:56:11;101920.53;;;-4.24;71.01
26657;BME280;14279;50.010;8.260;2022-12-18T07:58:37;101918.97;;;-4.20;70.98
26657;BME280;14279;50.010;8.260;2022-12-18T08:01:07;101925.66;;;-4.22;70.75
26657;BME280;14279;50.010;8.260;2022-12-18T08:03:33;101925.41;;;-4.28;71.01
26657;BME280;14279;50.010;8.260;2022-12-18T08:06:03;101929.19;;;-4.61;71.48
26657;BME280;14279;50.010;8.260;2022-12-18T08:08:28;101919.47;;;-4.91;72.38
26657;BME280;14279;50.010;8.260;2022-12-18T08:10:54;101923.50;;;-5.16;73.82
26657;BME280;14279;50.010;8.260;2022-12-18T08:13:20;101916.34;;;-5.05;73.98
26657;BME280;14279;50.010;8.260;2022-12-18T08:15:45;101915.47;;;-5.05;73.51
26657;BME280;14279;50.010;8.260;2022-12-18T08:18:10;101917.75;;;-5.11;74.48
26657;BME280;14279;50.010;8.260;2022-12-18T08:20:36;101923.75;;;-5.09;74.47
26657;BME280;14279;50.010;8.260;2022-12-18T08:23:01;101917.88;;;-5.08;74.55
26657;BME280;14279;50.010;8.260;2022-12-18T08:25:26;101911.41;;;-5.02;74.79
26657;BME280;14279;50.010;8.260;2022-12-18T08:27:51;101920.50;;;-5.07;74.83
26657;BME280;14279;50.010;8.260;2022-12-18T08:30:17;101916.34;;;-5.05;75.15
26657;BME280;14279;50.010;8.260;2022-12-18T08:32:42;101915.41;;;-4.87;74.79
26657;BME280;14279;50.010;8.260;2022-12-18T08:35:08;101906.97;;;-4.86;74.71
26657;BME280;14279;50.010;8.260;2022-12-18T08:37:33;101899.94;;;-4.92;74.78
26657;BME280;14279;50.010;8.260;2022-12-18T08:39:59;101901.69;;;-4.71;74.45
26657;BME280;14279;50.010;8.260;2022-12-18T08:42:24;101897.31;;;-4.74;74.68
26657;BME280;14279;50.010;8.260;2022-12-18T08:45:14;101893.63;;;-4.82;74.96
26657;BME280;14279;50.010;8.260;2022-12-18T08:47:40;101893.97;;;-4.94;75.28
26657;BME280;14279;50.010;8.260;2022-12-18T08:50:05;101893.63;;;-4.82;75.36
26657;BME280;14279;50.010;8.260;2022-12-18T08:52:32;101886.31;;;-4.74;75.11
26657;BME280;14279;50.010;8.260;2022-12-18T08:54:57;101890.13;;;-4.63;74.97
26657;BME280;14279;50.010;8.260;2022-12-18T08:57:22;101893.16;;;-4.72;74.93
26657;BME280;14279;50.010;8.260;2022-12-18T08:59:48;101885.38;;;-4.76;75.08
26657;BME280;14279;50.010;8.260;2022-12-18T09:02:13;101883.88;;;-4.71;74.73
26657;BME280;14279;50.010;8.260;2022-12-18T09:04:42;101882.47;;;-4.64;74.56
26657;BME280;14279;50.010;8.260;2022-12-18T09:07:17;101897.13;;;-4.57;74.36
26657;BME280;14279;50.010;8.260;2022-12-18T09:09:43;101905.50;;;-4.60;74.08
26657;BME280;14279;50.010;8.260;2022-12-18T09:12:15;101913.13;;;-4.60;74.47
26657;BME280;14279;50.010;8.260;2022-12-18T09:14:40;101906.28;;;-4.62;74.30
26657;BME280;14279;50.010;8.260;2022-12-18T09:17:05;101916.63;;;-4.58;73.89
26657;BME280;14279;50.010;8.260;2022-12-18T09:19:30;101919.03;;;-4.61;75.14
26657;BME280;14279;50.010;8.260;2022-12-18T09:21:56;101916.84;;;-4.73;74.66
26657;BME280;14279;50.010;8.260;2022-12-18T09:24:22;101920.75;;;-4.60;73.73
26657;BME280;14279;50.010;8.260;2022-12-18T09:26:53;101920.09;;;-4.56;73.62
26657;BME280;14279;50.010;8.260;2022-12-18T09:29:20;101926.47;;;-4.65;73.98
26657;BME280;14279;50.010;8.260;2022-12-18T09:31:51;101929.44;;;-4.55;74.19
26657;BME280;14279;50.010;8.260;2022-12-18T09:34:22;101927.84;;;-4.53;73.80
26657;BME280;14279;50.010;8.260;2022-12-18T09:36:48;101922.88;;;-4.49;73.84
26657;BME280;14279;50.010;8.260;2022-12-18T09:39:13;101914.94;;;-4.36;73.05
26657;BME280;14279;50.010;8.260;2022-12-18T09:41:55;101913.59;;;-4.28;72.96
26657;BME280;14279;50.010;8.260;2022-12-18T09:44:58;101918.28;;;-4.16;72.40
26657;BME280;14279;50.010;8.260;2022-12-18T09:47:29;101923.44;;;-4.14;72.47
26657;BME280;14279;50.010;8.260;2022-12-18T09:50:01;101919.16;;;-4.15;71.83
26657;BME280;14279;50.010;8.260;2022-12-18T09:52:34;101922.78;;;-4.09;71.74
26657;BME280;14279;50.010;8.260;2022-12-18T09:55:23;101915.75;;;-4.16;71.85
26657;BME280;14279;50.010;8.260;2022-12-18T09:57:53;101917.91;;;-4.04;71.68
26657;BME280;14279;50.010;8.260;2022-12-18T10:00:22;101919.75;;;-4.00;71.81
26657;BME280;14279;50.010;8.260;2022-12-18T10:02:48;101916.81;;;-3.88;71.05
26657;BME280;14279;50.010;8.260;2022-12-18T10:08:27;101925.34;;;-4.09;71.45
26657;BME280;14279;50.010;8.260;2022-12-18T10:11:08;101921.97;;;-3.86;71.38
26657;BME280;14279;50.010;8.260;2022-12-18T10:14:04;101909.59;;;-3.77;71.11
26657;BME280;14279;50.010;8.260;2022-12-18T10:22:21;101902.28;;;-3.68;70.23
26657;BME280;14279;50.010;8.260;2022-12-18T10:24:55;101898.38;;;-3.59;70.09
26657;BME280;14279;50.010;8.260;2022-12-18T10:27:26;101893.16;;;-3.63;70.39
26657;BME280;14279;50.010;8.260;2022-12-18T10:30:08;101878.41;;;-3.71;70.65
26657;BME280;14279;50.010;8.260;2022-12-18T10:32:41;101883.53;;;-3.47;70.07
26657;BME280;14279;50.010;8.260;2022-12-18T10:35:15;101882.56;;;-3.51;69.69
26657;BME280;14279;50.010;8.260;2022-12-18T10:38:06;101882.00;;;-3.42;69.30
26657;BME280;14279;50.010;8.260;2022-12-18T10:41:00;101885.91;;;-3.52;69.14
26657;BME280;14279;50.010;8.260;2022-12-18T10:43:34;101888.22;;;-3.58;69.60
26657;BME280;14279;50.010;8.260;2022-12-18T10:46:01;101893.97;;;-3.86;70.47
26657;BME280;14279;50.010;8.260;2022-12-18T10:48:28;101894.78;;;-3.65;70.72
26657;BME280;14279;50.010;8.260;2022-12-18T10:50:54;101897.88;;;-3.95;71.40
26657;BME280;14279;50.010;8.260;2022-12-18T10:53:25;101883.66;;;-3.89;71.66
26657;BME280;14279;50.010;8.260;2022-12-18T11:01:13;101884.66;;;-2.90;69.62
26657;BME280;14279;50.010;8.260;2022-12-18T11:03:44;101889.72;;;-3.16;70.71
26657;BME280;14279;50.010;8.260;2022-12-18T11:06:18;101889.34;;;-3.03;69.88
26657;BME280;14279;50.010;8.260;2022-12-18T11:17:23;101883.69;;;-2.94;68.75
26657;BME280;14279;50.010;8.260;2022-12-18T11:20:46;101879.25;;;-2.74;68.61
26657;BME280;14279;50.010;8.260;2022-12-18T11:22:58;101884.06;;;-2.57;68.74
26657;BME280;14279;50.010;8.260;2022-12-18T11:25:25;101878.50;;;-2.71;68.77
26657;BME280;14279;50.010;8.260;2022-12-18T11:27:58;101889.44;;;-2.74;68.50
26657;BME280;14279;50.010;8.260;2022-12-18T11:32:54;101879.13;;;-2.77;68.44
26657;BME280;14279;50.010;8.260;2022-12-18T11:35:30;101872.59;;;-2.70;68.33
26657;BME280;14279;50.010;8.260;2022-12-18T11:38:01;101870.69;;;-3.02;69.48
26657;BME280;14279;50.010;8.260;2022-12-18T11:40:36;101866.16;;;-2.84;69.67
26657;BME280;14279;50.010;8.260;2022-12-18T11:43:09;101871.66;;;-2.46;68.16
26657;BME280;14279;50.010;8.260;2022-12-18T11:45:41;101876.56;;;-2.78;68.73
26657;BME280;14279;50.010;8.260;2022-12-18T11:48:27;101865.97;;;-2.37;67.64
26657;BME280;14279;50.010;8.260;2022-12-18T11:50:55;101876.28;;;-2.34;67.44
26657;BME280;14279;50.010;8.260;2022-12-18T11:53:22;101874.00;;;-2.52;67.61
26657;BME280;14279;50.010;8.260;2022-12-18T11:56:25;101878.66;;;-2.39;67.21
26657;BME280;14279;50.010;8.260;2022-12-18T11:59:02;101879.66;;;-2.61;67.83
26657;BME280;14279;50.010;8.260;2022-12-18T12:01:59;101877.56;;;-2.47;67.80
26657;BME280;14279;50.010;8.260;2022-12-18T12:04:44;101881.06;;;-2.44;67.51
26657;BME280;14279;50.010;8.260;2022-12-18T12:12:54;101853.31;;;-2.34;67.63
26657;BME280;14279;50.010;8.260;2022-12-18T12:15:52;101855.09;;;-2.32;67.92
26657;BME280;14279;50.010;8.260;2022-12-18T12:18:28;101858.53;;;-2.30;67.46
26657;BME280;14279;50.010;8.260;2022-12-18T12:34:13;101840.25;;;-2.44;68.35
26657;BME280;14279;50.010;8.260;2022-12-18T12:39:17;101852.09;;;-2.46;69.04
26657;BME280;14279;50.010;8.260;2022-12-18T12:41:45;101845.25;;;-2.47;68.74
26657;BME280;14279;50.010;8.260;2022-12-18T12:44:34;101842.28;;;-2.33;68.56
26657;BME280;14279;50.010;8.260;2022-12-18T12:47:13;101845.00;;;-2.56;69.00
26657;BME280;14279;50.010;8.260;2022-12-18T12:49:40;101838.66;;;-2.67;69.19
26657;BME280;14279;50.010;8.260;2022-12-18T12:54:56;101824.03;;;-2.46;68.43
26657;BME280;14279;50.010;8.260;2022-12-18T12:57:45;101814.84;;;-2.40;68.75
26657;BME280;14279;50.010;8.260;2022-12-18T13:00:16;101819.38;;;-2.32;68.70
26657;BME280;14279;50.010;8.260;2022-12-18T13:08:11;101803.31;;;-2.29;68.12
26657;BME280;14279;50.010;8.260;2022-12-18T13:13:11;101804.16;;;-2.29;68.16
26657;BME280;14279;50.010;8.260;2022-12-18T13:15:44;101810.53;;;-2.43;68.52
26657;BME280;14279;50.010;8.260;2022-12-18T13:25:53;101793.94;;;-2.58;68.86
26657;BME280;14279;50.010;8.260;2022-12-18T13:34:23;101796.09;;;-2.43;69.60
26657;BME280;14279;50.010;8.260;2022-12-18T13:36:50;101787.25;;;-2.54;69.40
26657;BME280;14279;50.010;8.260;2022-12-18T13:41:48;101784.41;;;-3.42;72.66
26657;BME280;14279;50.010;8.260;2022-12-18T13:44:32;101779.59;;;-3.33;72.19
26657;BME280;14279;50.010;8.260;2022-12-18T13:46:58;101779.13;;;-3.23;72.25
26657;BME280;14279;50.010;8.260;2022-12-18T13:49:39;101777.31;;;-2.99;71.83
26657;BME280;14279;50.010;8.260;2022-12-18T13:52:20;101777.66;;;-2.89;71.26
26657;BME280;14279;50.010;8.260;2022-12-18T13:54:50;101780.72;;;-2.73;71.45
26657;BME280;14279;50.010;8.260;2022-12-18T13:57:31;101789.34;;;-2.95;71.18
26657;BME280;14279;50.010;8.260;2022-12-18T13:59:58;101781.47;;;-2.76;70.99
26657;BME280;14279;50.010;8.260;2022-12-18T14:02:28;101778.50;;;-2.62;70.92
26657;BME280;14279;50.010;8.260;2022-12-18T14:05:00;101774.00;;;-2.69;71.02
26657;BME280;14279;50.010;8.260;2022-12-18T14:07:28;101772.19;;;-2.74;70.80
26657;BME280;14279;50.010;8.260;2022-12-18T14:09:56;101773.28;;;-2.65;70.47
26657;BME280;14279;50.010;8.260;2022-12-18T14:12:23;101776.56;;;-2.69;70.42
26657;BME280;14279;50.010;8.260;2022-12-18T14:15:28;101779.19;;;-2.68;70.35
26657;BME280;14279;50.010;8.260;2022-12-18T14:18:02;101776.44;;;-2.74;70.40
26657;BME280;14279;50.010;8.260;2022-12-18T14:20:29;101789.03;;;-2.79;70.98
26657;BME280;14279;50.010;8.260;2022-12-18T14:22:57;101784.19;;;-2.71;70.66
26657;BME280;14279;50.010;8.260;2022-12-18T14:25:24;101786.38;;;-2.82;71.45
26657;BME280;14279;50.010;8.260;2022-12-18T14:30:36;101783.19;;;-2.75;71.22
26657;BME280;14279;50.010;8.260;2022-12-18T14:35:31;101772.00;;;-2.80;71.52